Time;durP1;ratioP1;P1;durP2;ratioP2;P2;SDS_P1;SDS_P2;PMS_P1;PMS_P2;Temp;Humidity;BMP_temperature;BMP_pressure;BME280_temperature;BME280_humidity;BME280_pressure;Samples;Min_cycle;Max_cycle;Signal;HPM_P1;HPM_P2
2023/07/30 00:00:57;;;;;;;18.15;9.07;;;;;;;;;;4950145;28;20056;-59
2023/07/30 00:03:23;;;;;;;20.50;9.20;;;;;;;;;;4951598;29;20095;-60
2023/07/30 00:05:54;;;;;;;18.15;9.85;;;;;;;;;;4951048;28;20503;-59
2023/07/30 00:08:20;;;;;;;20.50;10.55;;;;;;;;;;4951909;28;20391;-59
2023/07/30 00:10:46;;;;;;;20.20;10.52;;;;;;;;;;4951622;28;20027;-60
2023/07/30 00:13:12;;;;;;;20.23;10.38;;;;;;;;;;4951677;28;20046;-60
2023/07/30 00:15:38;;;;;;;19.92;9.60;;;;;;;;;;4951165;28;20020;-60
2023/07/30 00:18:04;;;;;;;19.17;10.63;;;;;;;;;;4951658;28;20027;-60
2023/07/30 00:20:30;;;;;;;20.25;10.80;;;;;;;;;;4951604;28;20108;-59
2023/07/30 00:22:56;;;;;;;18.80;9.73;;;;;;;;;;4950281;28;20023;-59
2023/07/30 00:25:22;;;;;;;19.60;10.10;;;;;;;;;;4950867;28;20747;-59
2023/07/30 00:27:48;;;;;;;20.50;9.98;;;;;;;;;;4952477;28;20032;-57
2023/07/30 00:30:15;;;;;;;18.60;9.02;;;;;;;;;;4951512;28;20479;-58
2023/07/30 00:32:43;;;;;;;20.70;9.45;;;;;;;;;;4951437;28;20042;-58
2023/07/30 00:35:09;;;;;;;18.13;9.05;;;;;;;;;;4950703;28;20073;-58
2023/07/30 00:37:35;;;;;;;20.88;9.68;;;;;;;;;;4951256;28;20035;-58
2023/07/30 00:40:02;;;;;;;18.88;8.40;;;;;;;;;;4951147;28;20031;-58
2023/07/30 00:42:28;;;;;;;20.67;8.73;;;;;;;;;;4951368;28;20361;-56
2023/07/30 00:44:54;;;;;;;20.08;10.15;;;;;;;;;;4950640;28;20031;-56
2023/07/30 00:47:21;;;;;;;18.92;8.85;;;;;;;;;;4951369;28;20089;-58
2023/07/30 00:49:47;;;;;;;22.15;10.07;;;;;;;;;;4951475;28;20480;-58
2023/07/30 00:52:13;;;;;;;20.10;9.50;;;;;;;;;;4951380;28;20627;-56
2023/07/30 00:54:39;;;;;;;19.70;8.48;;;;;;;;;;4950464;28;20031;-59
2023/07/30 00:57:07;;;;;;;20.23;8.85;;;;;;;;;;4951470;28;20019;-56
2023/07/30 00:59:33;;;;;;;22.85;9.30;;;;;;;;;;4951734;28;20019;-58
2023/07/30 01:01:59;;;;;;;24.50;9.30;;;;;;;;;;4950341;28;20073;-59
2023/07/30 01:04:26;;;;;;;20.60;8.90;;;;;;;;;;4950330;28;20023;-56
2023/07/30 01:06:52;;;;;;;18.77;9.48;;;;;;;;;;4949696;28;20034;-56
2023/07/30 01:09:18;;;;;;;17.20;8.77;;;;;;;;;;4951032;28;20438;-57
2023/07/30 01:11:45;;;;;;;19.65;9.07;;;;;;;;;;4949695;28;20023;-58
2023/07/30 01:14:11;;;;;;;19.88;9.57;;;;;;;;;;4948852;28;20035;-56
2023/07/30 01:16:37;;;;;;;20.17;10.27;;;;;;;;;;4950835;28;20028;-56
2023/07/30 01:19:04;;;;;;;20.00;9.75;;;;;;;;;;4950735;28;20136;-57
2023/07/30 01:21:36;;;;;;;19.88;9.85;;;;;;;;;;4950821;28;20098;-58
2023/07/30 01:24:03;;;;;;;23.77;9.60;;;;;;;;;;4949935;28;20027;-56
2023/07/30 01:26:35;;;;;;;23.10;8.80;;;;;;;;;;4950256;28;20030;-58
2023/07/30 01:29:04;;;;;;;19.25;9.38;;;;;;;;;;4950578;28;20054;-56
2023/07/30 01:31:32;;;;;;;21.55;9.77;;;;;;;;;;4950557;28;20058;-59
2023/07/30 01:33:59;;;;;;;18.90;9.32;;;;;;;;;;4949872;28;20106;-58
2023/07/30 01:36:25;;;;;;;23.38;9.63;;;;;;;;;;4950240;28;20023;-58
2023/07/30 01:38:52;;;;;;;19.73;9.18;;;;;;;;;;4950499;28;20016;-55
2023/07/30 01:41:18;;;;;;;19.92;9.55;;;;;;;;;;4950721;28;20027;-60
2023/07/30 01:43:44;;;;;;;20.40;9.38;;;;;;;;;;4950376;28;20038;-59
2023/07/30 01:46:09;;;;;;;20.85;10.43;;;;;;;;;;4949730;28;20027;-59
2023/07/30 01:48:35;;;;;;;19.67;9.40;;;;;;;;;;4950645;28;20035;-61
2023/07/30 01:51:01;;;;;;;20.40;9.85;;;;;;;;;;4949118;28;20027;-59
2023/07/30 01:53:27;;;;;;;17.98;8.93;;;;;;;;;;4950326;28;20115;-59
2023/07/30 01:55:53;;;;;;;23.92;9.63;;;;;;;;;;4949474;28;20464;-58
2023/07/30 01:58:19;;;;;;;19.38;8.95;;;;;;;;;;4950472;28;20030;-57
2023/07/30 02:00:46;;;;;;;20.60;8.60;;;;;;;;;;4948934;28;20380;-57
2023/07/30 02:03:12;;;;;;;19.63;8.38;;;;;;;;;;4950272;28;20027;-58
2023/07/30 02:05:38;;;;;;;19.10;8.55;;;;;;;;;;4948504;28;20027;-57
2023/07/30 02:08:04;;;;;;;18.75;7.45;;;;;;;;;;4950134;28;20106;-57
2023/07/30 02:10:30;;;;;;;21.75;9.32;;;;;;;;;;4950193;28;20440;-58
2023/07/30 02:12:56;;;;;;;19.80;8.18;;;;;;;;;;4950259;28;20028;-57
2023/07/30 02:15:22;;;;;;;18.80;8.25;;;;;;;;;;4952839;28;20035;-58
2023/07/30 02:17:48;;;;;;;19.55;8.88;;;;;;;;;;4952296;28;20023;-58
2023/07/30 02:20:14;;;;;;;19.52;8.70;;;;;;;;;;4953777;28;20483;-58
2023/07/30 02:22:40;;;;;;;17.55;8.43;;;;;;;;;;4953923;28;20030;-59
2023/07/30 02:25:06;;;;;;;18.88;8.05;;;;;;;;;;4953153;28;20027;-61
2023/07/30 02:27:32;;;;;;;18.80;7.93;;;;;;;;;;4953201;28;20047;-58
2023/07/30 02:29:58;;;;;;;20.02;8.13;;;;;;;;;;4952024;28;20042;-59
2023/07/30 02:32:24;;;;;;;21.42;8.57;;;;;;;;;;4953239;28;20027;-56
2023/07/30 02:34:50;;;;;;;18.23;8.15;;;;;;;;;;4952489;28;20027;-59
2023/07/30 02:37:16;;;;;;;21.08;8.18;;;;;;;;;;4953014;28;20023;-58
2023/07/30 02:39:42;;;;;;;18.67;8.20;;;;;;;;;;4953384;28;20388;-56
2023/07/30 02:42:08;;;;;;;17.60;8.27;;;;;;;;;;4953040;28;20034;-57
2023/07/30 02:44:34;;;;;;;18.42;8.65;;;;;;;;;;4952201;28;20023;-57
2023/07/30 02:47:00;;;;;;;21.20;7.95;;;;;;;;;;4952908;28;20396;-58
2023/07/30 02:49:26;;;;;;;20.38;8.55;;;;;;;;;;4953105;28;20067;-59
2023/07/30 02:51:52;;;;;;;18.02;7.88;;;;;;;;;;4952653;28;20057;-61
2023/07/30 02:54:20;;;;;;;19.10;8.63;;;;;;;;;;4952037;28;20584;-57
2023/07/30 02:56:46;;;;;;;;;;;;;;;;;;4953669;28;20023;-60
2023/07/30 02:59:12;;;;;;;19.90;8.95;;;;;;;;;;4952733;28;19917;-57
2023/07/30 03:01:38;;;;;;;16.35;7.25;;;;;;;;;;4952808;29;20089;-57
2023/07/30 03:04:04;;;;;;;19.25;8.15;;;;;;;;;;4952329;29;20097;-59
2023/07/30 03:06:30;;;;;;;19.48;7.43;;;;;;;;;;4952481;29;20097;-58
2023/07/30 03:08:56;;;;;;;17.45;8.07;;;;;;;;;;4952793;29;20102;-57
2023/07/30 03:11:23;;;;;;;17.60;7.78;;;;;;;;;;4952800;29;20031;-57
2023/07/30 03:13:49;;;;;;;16.92;7.32;;;;;;;;;;4952514;29;20031;-58
2023/07/30 03:16:14;;;;;;;20.25;8.13;;;;;;;;;;4951878;29;20035;-59
2023/07/30 03:18:40;;;;;;;23.08;7.60;;;;;;;;;;4952593;29;20023;-55
2023/07/30 03:21:06;;;;;;;28.02;8.35;;;;;;;;;;4951275;29;20031;-58
2023/07/30 03:23:32;;;;;;;17.75;7.65;;;;;;;;;;4952584;29;20030;-59
2023/07/30 03:26:00;;;;;;;19.60;7.65;;;;;;;;;;4951355;29;20023;-58
2023/07/30 03:28:26;;;;;;;19.85;7.68;;;;;;;;;;4951554;29;20514;-58
2023/07/30 03:30:52;;;;;;;18.27;7.72;;;;;;;;;;4952588;29;20023;-59
2023/07/30 03:33:17;;;;;;;19.60;7.30;;;;;;;;;;4952445;29;20443;-57
2023/07/30 03:35:43;;;;;;;17.58;7.40;;;;;;;;;;4951854;29;20029;-57
2023/07/30 03:38:09;;;;;;;19.40;8.15;;;;;;;;;;4952257;28;20069;-59
2023/07/30 03:40:35;;;;;;;16.85;7.88;;;;;;;;;;4952400;29;20507;-59
2023/07/30 03:43:01;;;;;;;19.02;8.48;;;;;;;;;;4951982;29;20448;-57
2023/07/30 03:45:27;;;;;;;20.08;8.65;;;;;;;;;;4951664;29;20046;-58
2023/07/30 03:47:53;;;;;;;18.45;8.15;;;;;;;;;;4952379;29;20031;-57
2023/07/30 03:50:19;;;;;;;20.23;8.07;;;;;;;;;;4952242;29;20502;-59
2023/07/30 03:52:45;;;;;;;19.42;8.13;;;;;;;;;;4952138;29;20377;-59
2023/07/30 03:55:11;;;;;;;16.40;7.15;;;;;;;;;;4951351;29;20027;-58
2023/07/30 03:57:37;;;;;;;22.52;9.98;;;;;;;;;;4952307;29;20027;-57
2023/07/30 04:00:04;;;;;;;18.38;8.10;;;;;;;;;;4952110;29;20418;-56
2023/07/30 04:02:30;;;;;;;18.80;8.35;;;;;;;;;;4952126;29;20038;-59
2023/07/30 04:04:56;;;;;;;20.13;8.27;;;;;;;;;;4950000;29;20403;-56
2023/07/30 04:07:22;;;;;;;17.77;8.00;;;;;;;;;;4946364;29;20040;-59
2023/07/30 04:09:48;;;;;;;22.08;8.52;;;;;;;;;;4966016;28;20057;-59
2023/07/30 04:12:14;;;;;;;22.33;8.70;;;;;;;;;;4952019;28;20027;-55
2023/07/30 04:14:40;;;;;;;20.25;9.48;;;;;;;;;;4950750;28;20123;-60
2023/07/30 04:17:06;;;;;;;18.85;8.43;;;;;;;;;;4951578;28;20035;-59
2023/07/30 04:19:32;;;;;;;18.15;8.00;;;;;;;;;;4951533;28;20106;-59
2023/07/30 04:21:58;;;;;;;25.65;9.13;;;;;;;;;;4950240;28;20019;-57
2023/07/30 04:24:25;;;;;;;21.08;8.65;;;;;;;;;;4950886;28;20019;-59
2023/07/30 04:26:51;;;;;;;20.13;8.37;;;;;;;;;;4951299;28;20027;-60
2023/07/30 04:29:17;;;;;;;19.48;7.60;;;;;;;;;;4950193;29;20279;-58
2023/07/30 04:31:43;;;;;;;18.85;8.18;;;;;;;;;;4951455;28;20080;-59
2023/07/30 04:34:09;;;;;;;18.50;8.25;;;;;;;;;;4950146;28;20503;-58
2023/07/30 04:36:35;;;;;;;17.27;8.40;;;;;;;;;;4950453;28;20023;-59
2023/07/30 04:39:01;;;;;;;18.95;8.23;;;;;;;;;;4950893;28;20381;-59
2023/07/30 04:41:27;;;;;;;17.25;7.43;;;;;;;;;;4949505;28;20027;-59
2023/07/30 04:43:53;;;;;;;21.48;8.38;;;;;;;;;;4950847;28;20063;-56
2023/07/30 04:46:19;;;;;;;21.30;8.00;;;;;;;;;;4950885;28;20040;-57
2023/07/30 04:48:45;;;;;;;20.15;8.50;;;;;;;;;;4951263;28;20027;-58
2023/07/30 04:51:11;;;;;;;18.90;7.97;;;;;;;;;;4951334;28;20114;-55
2023/07/30 04:53:37;;;;;;;20.60;8.70;;;;;;;;;;4949880;28;20038;-58
2023/07/30 04:56:03;;;;;;;21.00;7.95;;;;;;;;;;4949241;28;20031;-58
2023/07/30 04:58:29;;;;;;;20.73;7.50;;;;;;;;;;4950976;28;20023;-55
2023/07/30 05:00:55;;;;;;;17.20;8.57;;;;;;;;;;4951179;28;20034;-56
2023/07/30 05:03:21;;;;;;;22.27;7.75;;;;;;;;;;4951075;28;20434;-55
2023/07/30 05:05:47;;;;;;;19.30;7.80;;;;;;;;;;4950462;28;20019;-56
2023/07/30 05:08:13;;;;;;;25.15;9.40;;;;;;;;;;4948761;28;20082;-56
2023/07/30 05:10:39;;;;;;;21.95;8.23;;;;;;;;;;4950937;28;20103;-56
2023/07/30 05:13:06;;;;;;;19.77;8.05;;;;;;;;;;4950914;28;20031;-56
2023/07/30 05:15:32;;;;;;;17.70;7.72;;;;;;;;;;4950081;28;20027;-56
2023/07/30 05:17:58;;;;;;;19.45;8.52;;;;;;;;;;4950985;28;20507;-56
2023/07/30 05:20:24;;;;;;;19.42;7.90;;;;;;;;;;4951278;28;20030;-57
2023/07/30 05:22:50;;;;;;;21.02;8.63;;;;;;;;;;4951167;28;20023;-59
2023/07/30 05:25:16;;;;;;;20.27;8.10;;;;;;;;;;4950114;28;20110;-58
2023/07/30 05:27:42;;;;;;;17.73;8.73;;;;;;;;;;4950518;28;20050;-58
2023/07/30 05:30:08;;;;;;;22.58;8.63;;;;;;;;;;4950763;28;20062;-55
2023/07/30 05:32:34;;;;;;;23.20;9.88;;;;;;;;;;4950645;28;20023;-58
2023/07/30 05:35:00;;;;;;;23.70;10.05;;;;;;;;;;4950132;28;20168;-58
2023/07/30 05:37:26;;;;;;;21.80;9.77;;;;;;;;;;4949594;28;20030;-57
2023/07/30 05:39:52;;;;;;;20.10;8.85;;;;;;;;;;4950602;28;20558;-57
2023/07/30 05:42:18;;;;;;;22.15;9.98;;;;;;;;;;4950558;28;20042;-58
2023/07/30 05:44:44;;;;;;;22.77;9.20;;;;;;;;;;4947793;28;20055;-56
2023/07/30 05:47:10;;;;;;;24.48;10.07;;;;;;;;;;4949970;28;20034;-59
2023/07/30 05:49:36;;;;;;;21.88;9.35;;;;;;;;;;4953021;28;20027;-55
2023/07/30 05:52:02;;;;;;;22.58;10.05;;;;;;;;;;4952556;28;20054;-58
2023/07/30 05:54:28;;;;;;;22.23;10.15;;;;;;;;;;4953083;28;20394;-58
2023/07/30 05:56:54;;;;;;;23.00;10.55;;;;;;;;;;4953752;28;20024;-58
2023/07/30 05:59:20;;;;;;;18.77;8.93;;;;;;;;;;4953822;28;20479;-58
2023/07/30 06:01:46;;;;;;;22.85;10.02;;;;;;;;;;4953566;28;20024;-58
2023/07/30 06:04:13;;;;;;;20.10;10.90;;;;;;;;;;4951539;28;20039;-58
2023/07/30 06:06:39;;;;;;;23.58;10.80;;;;;;;;;;4952278;28;20028;-57
2023/07/30 06:09:05;;;;;;;31.67;11.70;;;;;;;;;;4952248;28;20031;-58
2023/07/30 06:11:31;;;;;;;25.63;13.48;;;;;;;;;;4952148;28;20023;-61
2023/07/30 06:13:57;;;;;;;25.35;9.65;;;;;;;;;;4952831;28;20035;-58
2023/07/30 06:16:23;;;;;;;25.85;11.77;;;;;;;;;;4953024;29;20030;-57
2023/07/30 06:18:49;;;;;;;26.80;12.25;;;;;;;;;;4953462;28;20019;-58
2023/07/30 06:21:15;;;;;;;30.25;13.23;;;;;;;;;;4953443;28;20403;-56
2023/07/30 06:23:41;;;;;;;27.10;12.82;;;;;;;;;;4953493;28;20046;-58
2023/07/30 06:26:07;;;;;;;29.08;13.38;;;;;;;;;;5027736;28;20515;-58
2023/07/30 06:28:33;;;;;;;21.92;10.90;;;;;;;;;;5055422;28;20029;-57
2023/07/30 06:31:02;;;;;;;25.27;13.10;;;;;;;;;;5054409;28;20017;-57
2023/07/30 06:33:28;;;;;;;30.55;13.38;;;;;;;;;;5054209;28;20561;-57
2023/07/30 06:35:54;;;;;;;24.23;13.27;;;;;;;;;;5053823;28;20025;-58
2023/07/30 06:38:21;;;;;;;29.05;13.43;;;;;;;;;;5054280;28;20733;-58
2023/07/30 06:40:47;;;;;;;31.13;13.90;;;;;;;;;;5054396;28;20021;-58
2023/07/30 06:43:13;;;;;;;31.77;14.85;;;;;;;;;;5054126;28;20359;-57
2023/07/30 06:45:39;;;;;;;26.25;13.93;;;;;;;;;;5004945;28;20031;-56
2023/07/30 06:48:05;;;;;;;26.48;14.98;;;;;;;;;;4950856;28;20028;-56
2023/07/30 06:50:31;;;;;;;32.25;14.93;;;;;;;;;;4950321;28;20089;-59
2023/07/30 06:52:57;;;;;;;26.70;15.35;;;;;;;;;;4952675;28;20114;-57
2023/07/30 06:55:23;;;;;;;28.92;14.60;;;;;;;;;;4950749;28;20024;-55
2023/07/30 06:57:49;;;;;;;22.85;11.77;;;;;;;;;;4951086;28;20512;-56
2023/07/30 07:00:21;;;;;;;29.20;14.55;;;;;;;;;;4951695;28;20024;-53
2023/07/30 07:02:47;;;;;;;28.33;14.57;;;;;;;;;;4951669;28;20498;-56
2023/07/30 07:05:13;;;;;;;28.75;14.63;;;;;;;;;;4951871;28;20406;-54
2023/07/30 07:07:39;;;;;;;26.58;13.60;;;;;;;;;;4952500;28;20031;-57
2023/07/30 07:10:05;;;;;;;31.55;14.13;;;;;;;;;;4952590;28;20067;-57
2023/07/30 07:12:31;;;;;;;28.90;14.50;;;;;;;;;;4952472;28;20031;-58
2023/07/30 07:14:58;;;;;;;27.73;14.57;;;;;;;;;;4951619;28;20479;-58
2023/07/30 07:17:24;;;;;;;31.58;14.52;;;;;;;;;;4952363;28;20450;-58
2023/07/30 07:19:50;;;;;;;27.38;14.10;;;;;;;;;;4951307;28;20030;-58
2023/07/30 07:22:17;;;;;;;26.48;13.48;;;;;;;;;;4952520;28;20031;-56
2023/07/30 07:24:44;;;;;;;27.70;14.80;;;;;;;;;;4951798;28;20023;-56
2023/07/30 07:27:10;;;;;;;30.33;15.10;;;;;;;;;;4952365;28;20043;-57
2023/07/30 07:29:36;;;;;;;29.20;14.65;;;;;;;;;;4951038;28;20023;-56
2023/07/30 07:32:02;;;;;;;30.83;15.13;;;;;;;;;;4952246;28;20035;-57
2023/07/30 07:34:28;;;;;;;29.42;13.23;;;;;;;;;;4951483;28;20027;-56
2023/07/30 07:36:54;;;;;;;26.95;13.52;;;;;;;;;;4952411;28;20026;-58
2023/07/30 07:39:20;;;;;;;28.60;13.13;;;;;;;;;;4952264;28;20023;-57
2023/07/30 07:41:46;;;;;;;36.42;15.45;;;;;;;;;;4952482;28;20027;-56
2023/07/30 07:44:12;;;;;;;33.72;14.45;;;;;;;;;;4951679;28;20035;-57
2023/07/30 07:46:38;;;;;;;23.80;13.90;;;;;;;;;;4951009;28;20035;-59
2023/07/30 07:49:04;;;;;;;25.77;14.32;;;;;;;;;;4952268;28;20039;-58
2023/07/30 07:51:30;;;;;;;26.05;13.75;;;;;;;;;;4952172;28;20438;-58
2023/07/30 07:53:56;;;;;;;27.30;14.10;;;;;;;;;;4951651;28;20097;-59
2023/07/30 07:56:22;;;;;;;26.80;13.15;;;;;;;;;;4951966;28;20020;-55
2023/07/30 07:58:48;;;;;;;23.98;13.23;;;;;;;;;;4950636;28;20557;-57
2023/07/30 08:01:14;;;;;;;29.55;13.77;;;;;;;;;;4952006;28;20122;-57
2023/07/30 08:03:40;;;;;;;30.30;13.93;;;;;;;;;;4952003;28;20028;-57
2023/07/30 08:06:06;;;;;;;30.15;13.20;;;;;;;;;;4951282;28;20036;-58
2023/07/30 08:08:32;;;;;;;27.13;13.20;;;;;;;;;;4951706;28;20023;-59
2023/07/30 08:10:58;;;;;;;27.92;14.13;;;;;;;;;;4951352;28;20031;-57
2023/07/30 08:13:24;;;;;;;27.50;14.35;;;;;;;;;;4951346;28;20015;-58
2023/07/30 08:15:50;;;;;;;28.67;13.55;;;;;;;;;;4950700;28;20023;-56
2023/07/30 08:18:17;;;;;;;23.17;12.98;;;;;;;;;;4951121;28;20078;-58
2023/07/30 08:20:44;;;;;;;27.35;14.02;;;;;;;;;;4950101;28;20027;-57
2023/07/30 08:23:10;;;;;;;27.63;14.25;;;;;;;;;;4951614;28;20069;-56
2023/07/30 08:25:36;;;;;;;28.20;14.15;;;;;;;;;;4950711;28;20034;-58
2023/07/30 08:28:02;;;;;;;24.55;13.98;;;;;;;;;;4951052;28;20038;-57
2023/07/30 08:30:28;;;;;;;29.83;15.00;;;;;;;;;;4950254;28;20092;-59
2023/07/30 08:32:54;;;;;;;25.88;13.50;;;;;;;;;;4950406;28;20027;-56
2023/07/30 08:35:20;;;;;;;27.30;14.52;;;;;;;;;;4950404;28;20272;-57
2023/07/30 08:37:46;;;;;;;27.58;14.35;;;;;;;;;;4949130;28;20031;-52
2023/07/30 08:40:12;;;;;;;25.40;14.77;;;;;;;;;;4948775;28;20031;-51
2023/07/30 08:42:38;;;;;;;26.45;13.32;;;;;;;;;;4950738;28;20024;-53
2023/07/30 08:45:08;;;;;;;25.02;13.07;;;;;;;;;;4949933;28;20031;-56
2023/07/30 08:47:35;;;;;;;27.80;13.80;;;;;;;;;;4950619;28;20027;-53
2023/07/30 08:50:00;;;;;;;28.98;15.63;;;;;;;;;;4950844;28;20019;-57
2023/07/30 08:52:28;;;;;;;28.38;14.70;;;;;;;;;;4949798;28;20664;-54
2023/07/30 08:54:56;;;;;;;27.42;13.98;;;;;;;;;;4950431;28;20166;-51
2023/07/30 08:57:22;;;;;;;25.80;13.32;;;;;;;;;;4950855;28;20405;-51
2023/07/30 08:59:53;;;;;;;25.30;14.93;;;;;;;;;;4950771;28;20031;-53
2023/07/30 09:02:30;;;;;;;25.02;12.77;;;;;;;;;;4950907;28;20077;-58
2023/07/30 09:04:58;;;;;;;28.38;13.23;;;;;;;;;;4950236;28;20038;-54
2023/07/30 09:07:24;;;;;;;26.08;12.13;;;;;;;;;;4950854;28;20027;-54
2023/07/30 09:09:51;;;;;;;23.35;11.98;;;;;;;;;;4950806;28;20081;-52
2023/07/30 09:12:17;;;;;;;21.17;11.13;;;;;;;;;;4950607;28;20031;-52
2023/07/30 09:14:44;;;;;;;22.15;11.10;;;;;;;;;;4948780;28;20023;-54
2023/07/30 09:17:11;;;;;;;26.92;12.25;;;;;;;;;;4950422;28;20051;-54
2023/07/30 09:19:37;;;;;;;24.48;11.77;;;;;;;;;;4950521;28;20192;-52
2023/07/30 09:22:07;;;;;;;23.90;12.40;;;;;;;;;;4950778;28;20114;-55
2023/07/30 09:24:33;;;;;;;24.13;11.05;;;;;;;;;;4949428;28;20038;-57
2023/07/30 09:27:01;;;;;;;24.50;11.90;;;;;;;;;;4950468;28;20027;-55
2023/07/30 09:29:28;;;;;;;23.45;12.48;;;;;;;;;;4950853;28;20401;-58
2023/07/30 09:31:54;;;;;;;29.27;12.75;;;;;;;;;;4951105;28;20033;-55
2023/07/30 09:34:21;;;;;;;21.67;10.73;;;;;;;;;;4949998;28;20032;-59
2023/07/30 09:36:47;;;;;;;21.67;11.65;;;;;;;;;;4950800;28;20035;-62
2023/07/30 09:39:18;;;;;;;25.75;13.25;;;;;;;;;;4950752;28;20024;-59
2023/07/30 09:41:44;;;;;;;24.45;13.32;;;;;;;;;;4950873;28;20495;-61
2023/07/30 09:44:10;;;;;;;24.35;13.02;;;;;;;;;;4949055;29;20043;-58
2023/07/30 09:46:43;;;;;;;22.15;12.10;;;;;;;;;;4950392;28;20028;-58
2023/07/30 09:49:09;;;;;;;26.27;12.85;;;;;;;;;;4950473;28;20050;-60
2023/07/30 09:51:37;;;;;;;20.98;10.70;;;;;;;;;;4950415;28;20067;-61
2023/07/30 09:54:03;;;;;;;20.38;11.65;;;;;;;;;;4949567;28;20131;-56
2023/07/30 09:56:29;;;;;;;21.25;11.30;;;;;;;;;;4950153;28;20035;-60
2023/07/30 09:58:55;;;;;;;21.67;11.60;;;;;;;;;;4950369;28;20024;-57
2023/07/30 10:01:23;;;;;;;22.05;10.73;;;;;;;;;;4950409;28;20446;-60
2023/07/30 10:03:49;;;;;;;22.95;11.27;;;;;;;;;;4950109;28;20385;-61
2023/07/30 10:06:16;;;;;;;22.50;11.43;;;;;;;;;;4949367;28;20027;-59
2023/07/30 10:08:42;;;;;;;21.08;11.02;;;;;;;;;;4948891;28;20038;-63
2023/07/30 10:11:09;;;;;;;23.83;11.65;;;;;;;;;;4946167;28;20023;-63
2023/07/30 10:13:35;;;;;;;27.70;10.82;;;;;;;;;;4943266;28;20035;-63
2023/07/30 10:16:01;;;;;;;21.73;10.40;;;;;;;;;;4941052;28;20027;-56
2023/07/30 10:18:39;;;;;;;21.85;10.23;;;;;;;;;;4949691;28;20035;-57
2023/07/30 10:21:08;;;;;;;19.10;9.75;;;;;;;;;;4948411;28;20023;-57
2023/07/30 10:23:34;;;;;;;19.55;10.43;;;;;;;;;;4950104;28;20020;-59
2023/07/30 10:26:09;;;;;;;18.08;10.73;;;;;;;;;;4949372;28;20507;-59
2023/07/30 10:28:43;;;;;;;21.45;11.02;;;;;;;;;;4949732;28;20040;-59
2023/07/30 10:31:10;;;;;;;21.10;10.30;;;;;;;;;;4948231;28;20034;-59
2023/07/30 10:33:55;;;;;;;21.60;9.77;;;;;;;;;;4948247;28;20063;-61
2023/07/30 10:36:34;;;;;;;17.73;9.32;;;;;;;;;;4952681;28;20034;-60
2023/07/30 10:39:23;;;;;;;17.83;9.85;;;;;;;;;;4953240;28;20047;-59
2023/07/30 10:41:50;;;;;;;16.92;9.10;;;;;;;;;;4957917;28;20050;-60
2023/07/30 10:44:26;;;;;;;22.95;9.90;;;;;;;;;;4950042;28;20031;-59
2023/07/30 10:46:54;;;;;;;18.10;9.68;;;;;;;;;;4963827;28;20035;-61
2023/07/30 10:49:20;;;;;;;19.55;10.27;;;;;;;;;;4953040;28;20141;-62
2023/07/30 10:51:46;;;;;;;18.33;9.95;;;;;;;;;;4953025;29;20031;-60
2023/07/30 10:54:12;;;;;;;19.95;9.95;;;;;;;;;;4952055;29;20031;-60
2023/07/30 10:56:38;;;;;;;18.80;9.98;;;;;;;;;;4986035;28;20017;-62
2023/07/30 10:59:05;;;;;;;17.67;9.88;;;;;;;;;;5053417;28;20505;-60
2023/07/30 11:01:32;;;;;;;18.15;9.85;;;;;;;;;;5053657;28;20025;-59
2023/07/30 11:03:58;;;;;;;17.30;8.80;;;;;;;;;;5052737;28;20086;-57
2023/07/30 11:06:25;;;;;;;17.02;9.35;;;;;;;;;;5053185;28;20043;-60
2023/07/30 11:08:51;;;;;;;21.98;9.88;;;;;;;;;;5053207;28;20021;-61
2023/07/30 11:11:17;;;;;;;19.33;9.10;;;;;;;;;;5053158;28;20025;-60
2023/07/30 11:13:46;;;;;;;19.42;9.38;;;;;;;;;;5051909;28;20029;-63
2023/07/30 11:16:12;;;;;;;17.60;9.45;;;;;;;;;;5052444;28;20027;-58
2023/07/30 11:18:38;;;;;;;18.73;9.25;;;;;;;;;;5053026;28;20025;-58
2023/07/30 11:21:12;;;;;;;19.83;8.95;;;;;;;;;;5053082;28;20017;-56
2023/07/30 11:23:41;;;;;;;15.40;8.63;;;;;;;;;;4967443;28;20382;-53
2023/07/30 11:26:08;;;;;;;18.88;8.90;;;;;;;;;;4950036;29;20029;-56
2023/07/30 11:28:38;;;;;;;18.88;9.65;;;;;;;;;;4606138;28;10000490;-56
2023/07/30 11:31:11;;;;;;;18.42;9.00;;;;;;;;;;4951960;28;20027;-57
2023/07/30 11:33:39;;;;;;;17.23;9.30;;;;;;;;;;4961330;28;20054;-57
2023/07/30 11:36:05;;;;;;;16.70;9.23;;;;;;;;;;4967905;28;20027;-62
2023/07/30 11:38:32;;;;;;;18.67;9.73;;;;;;;;;;4951463;28;20185;-57
2023/07/30 11:40:59;;;;;;;18.08;9.27;;;;;;;;;;4948680;28;20102;-57
2023/07/30 11:43:25;;;;;;;18.88;9.15;;;;;;;;;;4948049;28;20035;-57
2023/07/30 11:46:09;;;;;;;16.80;8.63;;;;;;;;;;4953802;28;20027;-60
2023/07/30 11:48:36;;;;;;;22.35;9.98;;;;;;;;;;4948868;28;20142;-54
2023/07/30 11:51:02;;;;;;;19.00;9.93;;;;;;;;;;4949793;28;20104;-58
2023/07/30 11:53:47;;;;;;;19.33;10.93;;;;;;;;;;4950503;28;20026;-53
2023/07/30 11:56:21;;;;;;;17.88;9.60;;;;;;;;;;4950497;29;20028;-54
2023/07/30 11:58:48;;;;;;;18.25;9.23;;;;;;;;;;4951867;28;20058;-56
2023/07/30 12:01:15;;;;;;;18.02;9.38;;;;;;;;;;4951554;28;20027;-57
2023/07/30 12:03:41;;;;;;;17.33;9.73;;;;;;;;;;4964969;28;20023;-58
2023/07/30 12:06:08;;;;;;;19.88;9.40;;;;;;;;;;4968977;28;20023;-60
2023/07/30 12:08:35;;;;;;;17.67;9.05;;;;;;;;;;4971004;28;20076;-59
2023/07/30 12:11:05;;;;;;;19.83;9.20;;;;;;;;;;4970478;28;20110;-58
2023/07/30 12:13:31;;;;;;;20.52;9.52;;;;;;;;;;4970864;28;20045;-59
2023/07/30 12:15:58;;;;;;;20.35;9.85;;;;;;;;;;4969954;28;20482;-59
2023/07/30 12:18:25;;;;;;;20.77;9.90;;;;;;;;;;4970611;28;20023;-55
2023/07/30 12:20:52;;;;;;;19.83;12.75;;;;;;;;;;4970547;28;20399;-57
2023/07/30 12:23:19;;;;;;;18.90;12.48;;;;;;;;;;4970514;28;20194;-58
2023/07/30 12:25:45;;;;;;;19.02;11.50;;;;;;;;;;4969943;28;20031;-60
2023/07/30 12:28:11;;;;;;;19.33;9.43;;;;;;;;;;4971337;28;20210;-61
2023/07/30 12:30:37;;;;;;;16.75;8.50;;;;;;;;;;4953245;28;20030;-62
2023/07/30 12:33:04;;;;;;;17.75;9.00;;;;;;;;;;4950976;28;20032;-59
2023/07/30 12:35:30;;;;;;;18.23;8.73;;;;;;;;;;4950179;28;20041;-62
2023/07/30 12:37:57;;;;;;;19.20;8.75;;;;;;;;;;4965311;28;20097;-60
2023/07/30 12:40:23;;;;;;;19.48;8.75;;;;;;;;;;4970210;28;20030;-61
2023/07/30 12:42:49;;;;;;;17.42;8.05;;;;;;;;;;4970067;28;20415;-62
2023/07/30 12:45:14;;;;;;;14.77;8.10;;;;;;;;;;4969270;28;20034;-63
2023/07/30 12:47:41;;;;;;;15.65;8.20;;;;;;;;;;4968772;28;20027;-66
2023/07/30 12:50:07;;;;;;;15.68;7.97;;;;;;;;;;4969028;28;20069;-67
2023/07/30 12:52:34;;;;;;;16.15;7.93;;;;;;;;;;4970074;28;20066;-66
2023/07/30 12:55:00;;;;;;;14.68;7.60;;;;;;;;;;5020229;28;20033;-66
2023/07/30 12:57:26;;;;;;;17.08;7.60;;;;;;;;;;4675493;28;10000467;-66
2023/07/30 12:59:52;;;;;;;13.93;7.55;;;;;;;;;;4947595;28;20027;-67
2023/07/30 13:02:18;;;;;;;15.48;7.72;;;;;;;;;;4948144;29;20028;-66
2023/07/30 13:04:44;;;;;;;14.27;7.30;;;;;;;;;;4946973;29;20066;-66
2023/07/30 13:07:10;;;;;;;15.65;7.68;;;;;;;;;;4947615;29;20437;-66
2023/07/30 13:09:36;;;;;;;15.45;7.60;;;;;;;;;;4947472;28;20105;-67
2023/07/30 13:12:02;;;;;;;16.25;8.10;;;;;;;;;;4946946;29;20062;-65
2023/07/30 13:14:28;;;;;;;16.20;8.45;;;;;;;;;;4946687;28;20041;-66
2023/07/30 13:16:55;;;;;;;17.92;9.32;;;;;;;;;;4947018;28;20390;-65
2023/07/30 13:19:21;;;;;;;16.15;7.93;;;;;;;;;;4947432;28;20026;-66
2023/07/30 13:21:47;;;;;;;17.00;8.48;;;;;;;;;;4947561;28;20368;-66
2023/07/30 13:24:13;;;;;;;17.08;8.70;;;;;;;;;;4946905;29;20086;-65
2023/07/30 13:26:39;;;;;;;19.15;9.40;;;;;;;;;;4945945;29;20487;-65
2023/07/30 13:29:05;;;;;;;17.77;8.95;;;;;;;;;;4947285;28;20027;-66
2023/07/30 13:31:31;;;;;;;16.23;8.90;;;;;;;;;;4945882;28;20066;-66
2023/07/30 13:33:57;;;;;;;15.85;8.48;;;;;;;;;;4946421;28;20096;-66
2023/07/30 13:36:23;;;;;;;16.70;9.05;;;;;;;;;;4949204;28;20046;-66
2023/07/30 13:38:49;;;;;;;17.80;9.50;;;;;;;;;;4966081;28;20018;-66
2023/07/30 13:41:15;;;;;;;16.70;9.05;;;;;;;;;;4966225;28;20116;-65
2023/07/30 13:43:41;;;;;;;18.52;9.40;;;;;;;;;;4965128;28;20534;-65
2023/07/30 13:46:07;;;;;;;16.35;9.80;;;;;;;;;;4965137;28;20541;-65
2023/07/30 13:48:33;;;;;;;17.27;9.70;;;;;;;;;;4965932;28;20031;-65
2023/07/30 13:50:59;;;;;;;18.23;9.27;;;;;;;;;;4965977;28;20493;-65
2023/07/30 13:53:25;;;;;;;16.52;9.48;;;;;;;;;;4965005;28;20038;-66
2023/07/30 13:55:51;;;;;;;15.70;9.50;;;;;;;;;;4965338;28;20058;-63
2023/07/30 13:58:17;;;;;;;18.77;10.32;;;;;;;;;;4954348;28;20062;-65
2023/07/30 14:00:43;;;;;;;17.17;10.23;;;;;;;;;;4945109;28;20023;-65
2023/07/30 14:03:11;;;;;;;16.20;10.02;;;;;;;;;;4946530;28;20106;-64
2023/07/30 14:05:37;;;;;;;16.87;10.10;;;;;;;;;;4946178;28;20038;-65
2023/07/30 14:08:03;;;;;;;16.38;9.73;;;;;;;;;;4946889;28;20027;-65
2023/07/30 14:10:29;;;;;;;18.02;10.23;;;;;;;;;;4948754;28;20045;-65
2023/07/30 14:12:55;;;;;;;16.58;9.93;;;;;;;;;;4950165;28;20043;-64
2023/07/30 14:15:21;;;;;;;17.95;9.60;;;;;;;;;;4949146;28;20032;-65
2023/07/30 14:17:47;;;;;;;17.05;9.70;;;;;;;;;;4948345;28;20024;-65
2023/07/30 14:20:13;;;;;;;17.42;10.38;;;;;;;;;;4950482;28;20027;-64
2023/07/30 14:22:39;;;;;;;19.20;10.73;;;;;;;;;;4950024;28;20050;-65